Portada
METAR-TAF:

METAR-TAF

Aeroports :

Guiyang, Xina

latitud: 26-32-19N, longitud: 106-48-03E, altitud: 1139 m

Observació

L'informe es va fer fa 18 minuts, a les 12:00 UTC
Vent 6 kt del Sud/Sud-Est
Temperatura 8°C
Humitat 46%
Pressió 1027 hPa
Visibilitat 10 km o més
sense núvols per sota de 1500 mi sense presència de cumulonimbus.

METAR: ZUGY 071200Z 15003MPS CAVOK 08/M03 Q1027 NOSIG

Hora: 20:18 (12:18 UTC)

Pronòstic

L'informe es va fer fa 4 hores i 9 minuts, a les 08:09 UTC
Pronòstic vàlid del 07 a les 12 UTC al 08 a les 12 UTC
Vent 8 kt del Sud
Visibilitat: 3000 m
Núvols disperses a una alçada de 3300 ft
boirina

TAF: ZUGY 070809Z 0712/0812 19004MPS 3000 BR SCT033 TX15/0807Z TNM01/23Z

Observacions i pronòstics meteorològics de més de 4000 aeroports (METAR i TAF).

Les estacions disponibles són els punts grocs i vermells al mapa.

Posi el ratolí al punt desitjat per veure el nom de l'estació.

Feu clic per veure les observacions i els pronòstics meteorològics.

Per canviar el mapa: feu clic els botons verds amb una creu de color negre per apropar; al botó verd amb un guió per allunyar la imatge; o en les fletxes verdes per a mapes adjacents.


METAR-TAF: